Grande Senegal — ICEU — position and weather

sailwx.info

Track history (hours):
 
Tides and Currents Weather Stations Pressure Air Temp Water Temp Dewpoint Dewpoint Depression Visibility Wind Speed Wind Dir Waves Ship Positions

Grande Senegal

Last reported at 2017-Dec-08 12:38 UTC. Time now 2017-Dec-15 04:43 UTC.
Position N 38°43' E 008°42'.

Length 210 m; draft 8.2 m.

Type: Cargo ship. MMSI: 247285500.

Date/timePositionNaut miles runAvg speedWind from/ knotsBaromVisibWave heightAir tempDewpointWater temp
2017-Dec-08 12:38N 38°43' E 008°42'218.3
2017-Dec-08 12:30N 38°43' E 008°45'2217.8
2017-Dec-08 11:15N 38°49' E 009°13'518.4
2017-Dec-08 11:00N 38°50' E 009°18'918.8
2017-Dec-08 10:30N 38°54' E 009°29'275 7.9
2017-Dec-06 23:50N 38°55' E 015°22'717.9
2017-Dec-06 23:27N 38°50' E 015°28'818.0
2017-Dec-06 22:59N 38°43' E 015°35'1018.4
2017-Dec-06 22:28N 38°36' E 015°44'918.6
2017-Dec-06 22:00N 38°29' E 015°50'4 7.5
2017-Dec-06 21:30N 38°27' E 015°54'  
2017-Dec-04 05:26N 38°28' E 015°55'3 6.0
2017-Dec-04 04:58N 38°27' E 015°52'510.7
2017-Dec-04 04:28N 38°26' E 015°45'511.9
2017-Dec-04 04:00N 38°25' E 015°38'612.7
2017-Dec-04 03:30N 38°23' E 015°30'713.2
2017-Dec-04 03:00N 38°22' E 015°22'713.1
2017-Dec-04 02:30N 38°20' E 015°14'713.3
2017-Dec-04 02:00N 38°19' E 015°06'613.3
2017-Dec-04 01:30N 38°18' E 014°57'713.4
2017-Dec-04 01:00N 38°19' E 014°49'813.3
2017-Dec-04 00:25N 38°19' E 014°39'1413.3
2017-Dec-03 23:22N 38°20' E 014°21'713.4
2017-Dec-03 22:51N 38°20' E 014°12'513.1
2017-Dec-03 22:30N 38°21' E 014°06'612.9
2017-Dec-03 22:00N 38°21' E 013°58'712.9
2017-Dec-03 21:28N 38°21' E 013°49'613.3
2017-Dec-03 21:00N 38°21' E 013°42'713.4
2017-Dec-03 20:30N 38°22' E 013°33'713.3
2017-Dec-03 20:00N 38°22' E 013°25'713.3
2017-Dec-03 19:30N 38°22' E 013°16'713.6
2017-Dec-03 19:00N 38°22' E 013°07'713.4
2017-Dec-03 18:30N 38°22' E 012°59'713.2
2017-Dec-03 18:00N 38°22' E 012°50'713.3
2017-Dec-03 17:30N 38°21' E 012°42'713.3
2017-Dec-03 17:00N 38°20' E 012°34'  
2017-Dec-01 08:56N 36°01' W 005°13'717.6
2017-Dec-01 08:30N 35°59' W 005°22'61215.5
2017-Nov-29 16:57N 28°29' W 013°32'1015.4
2017-Nov-29 16:17N 28°20' W 013°38'515.6
2017-Nov-29 15:57N 28°16' W 013°40'715.5
2017-Nov-29 15:30N 28°09' W 013°44'815.0
2017-Nov-29 14:59N 28°02' W 013°47'714.7
2017-Nov-29 14:30N 27°56' W 013°50'815.0
2017-Nov-29 14:00N 27°49' W 013°55'815.3
2017-Nov-29 13:30N 27°43' W 014°00'815.2
2017-Nov-29 13:00N 27°37' W 014°06'815.1
2017-Nov-29 12:30N 27°32' W 014°11'715.0
2017-Nov-29 12:00N 27°26' W 014°16'815.0
2017-Nov-29 11:30N 27°20' W 014°22'2615.6
2017-Nov-29 09:52N 27°00' W 014°40'  
Track history (hours):
 
Tides and Currents Weather Stations Pressure Air Temp Water Temp Dewpoint Dewpoint Depression Visibility Wind Speed Wind Dir Waves Ship Positions

Grande Senegal

Last reported at 2017-Dec-08 12:38 UTC. Time now 2017-Dec-15 04:43 UTC.
Position N 38°43' E 008°42'.

Length 210 m; draft 8.2 m.

Type: Cargo ship. MMSI: 247285500.

Date/timePositionNaut miles runAvg speedWind from/ knotsBaromVisibWave heightAir tempDewpointWater temp
2017-Dec-08 12:38N 38°43' E 008°42'218.3
2017-Dec-08 12:30N 38°43' E 008°45'2217.8
2017-Dec-08 11:15N 38°49' E 009°13'518.4
2017-Dec-08 11:00N 38°50' E 009°18'918.8
2017-Dec-08 10:30N 38°54' E 009°29'275 7.9
2017-Dec-06 23:50N 38°55' E 015°22'717.9
2017-Dec-06 23:27N 38°50' E 015°28'818.0
2017-Dec-06 22:59N 38°43' E 015°35'1018.4
2017-Dec-06 22:28N 38°36' E 015°44'918.6
2017-Dec-06 22:00N 38°29' E 015°50'4 7.5
2017-Dec-06 21:30N 38°27' E 015°54'  
2017-Dec-04 05:26N 38°28' E 015°55'3 6.0
2017-Dec-04 04:58N 38°27' E 015°52'510.7
2017-Dec-04 04:28N 38°26' E 015°45'511.9
2017-Dec-04 04:00N 38°25' E 015°38'612.7
2017-Dec-04 03:30N 38°23' E 015°30'713.2
2017-Dec-04 03:00N 38°22' E 015°22'713.1
2017-Dec-04 02:30N 38°20' E 015°14'713.3
2017-Dec-04 02:00N 38°19' E 015°06'613.3
2017-Dec-04 01:30N 38°18' E 014°57'713.4
2017-Dec-04 01:00N 38°19' E 014°49'813.3
2017-Dec-04 00:25N 38°19' E 014°39'1413.3
2017-Dec-03 23:22N 38°20' E 014°21'713.4
2017-Dec-03 22:51N 38°20' E 014°12'513.1
2017-Dec-03 22:30N 38°21' E 014°06'612.9
2017-Dec-03 22:00N 38°21' E 013°58'712.9
2017-Dec-03 21:28N 38°21' E 013°49'613.3
2017-Dec-03 21:00N 38°21' E 013°42'713.4
2017-Dec-03 20:30N 38°22' E 013°33'713.3
2017-Dec-03 20:00N 38°22' E 013°25'713.3
2017-Dec-03 19:30N 38°22' E 013°16'713.6
2017-Dec-03 19:00N 38°22' E 013°07'713.4
2017-Dec-03 18:30N 38°22' E 012°59'713.2
2017-Dec-03 18:00N 38°22' E 012°50'713.3
2017-Dec-03 17:30N 38°21' E 012°42'713.3
2017-Dec-03 17:00N 38°20' E 012°34'  
2017-Dec-01 08:56N 36°01' W 005°13'717.6
2017-Dec-01 08:30N 35°59' W 005°22'61215.5
2017-Nov-29 16:57N 28°29' W 013°32'1015.4
2017-Nov-29 16:17N 28°20' W 013°38'515.6
2017-Nov-29 15:57N 28°16' W 013°40'715.5
2017-Nov-29 15:30N 28°09' W 013°44'815.0
2017-Nov-29 14:59N 28°02' W 013°47'714.7
2017-Nov-29 14:30N 27°56' W 013°50'815.0
2017-Nov-29 14:00N 27°49' W 013°55'815.3
2017-Nov-29 13:30N 27°43' W 014°00'815.2
2017-Nov-29 13:00N 27°37' W 014°06'815.1
2017-Nov-29 12:30N 27°32' W 014°11'715.0
2017-Nov-29 12:00N 27°26' W 014°16'815.0
2017-Nov-29 11:30N 27°20' W 014°22'2615.6
2017-Nov-29 09:52N 27°00' W 014°40'  

Dump ship's entire track history